sensor_id;sensor_type;location;lat;lon;timestamp;temperature;humidity
61807;DHT22;47726;52.766;6.606;2022-10-04T00:01:52;13.90;99.90
61807;DHT22;47726;52.766;6.606;2022-10-04T00:04:25;13.90;99.90
61807;DHT22;47726;52.766;6.606;2022-10-04T00:07:05;13.90;99.90
61807;DHT22;47726;52.766;6.606;2022-10-04T00:09:43;13.90;99.90
61807;DHT22;47726;52.766;6.606;2022-10-04T00:12:39;13.90;99.90
61807;DHT22;47726;52.766;6.606;2022-10-04T00:15:28;13.90;99.90
61807;DHT22;47726;52.766;6.606;2022-10-04T00:18:00;13.90;99.90
61807;DHT22;47726;52.766;6.606;2022-10-04T00:26:01;13.90;99.90
61807;DHT22;47726;52.766;6.606;2022-10-04T00:31:16;13.80;99.90
61807;DHT22;47726;52.766;6.606;2022-10-04T00:36:49;13.80;99.90
61807;DHT22;47726;52.766;6.606;2022-10-04T00:42:03;13.80;99.90
61807;DHT22;47726;52.766;6.606;2022-10-04T00:45:13;13.80;99.90
61807;DHT22;47726;52.766;6.606;2022-10-04T00:50:26;13.80;99.90
61807;DHT22;47726;52.766;6.606;2022-10-04T00:52:56;13.80;99.90
61807;DHT22;47726;52.766;6.606;2022-10-04T00:55:35;13.80;99.90
61807;DHT22;47726;52.766;6.606;2022-10-04T00:58:04;13.80;99.90
61807;DHT22;47726;52.766;6.606;2022-10-04T01:00:32;13.80;99.90
61807;DHT22;47726;52.766;6.606;2022-10-04T01:05:32;13.80;99.90
61807;DHT22;47726;52.766;6.606;2022-10-04T01:08:11;13.70;99.90
61807;DHT22;47726;52.766;6.606;2022-10-04T01:10:43;13.70;99.90
61807;DHT22;47726;52.766;6.606;2022-10-04T01:13:25;13.70;99.90
61807;DHT22;47726;52.766;6.606;2022-10-04T01:15:57;13.70;99.90
61807;DHT22;47726;52.766;6.606;2022-10-04T01:23:49;13.70;99.90
61807;DHT22;47726;52.766;6.606;2022-10-04T01:31:47;13.70;99.90
61807;DHT22;47726;52.766;6.606;2022-10-04T01:34:18;13.70;99.90
61807;DHT22;47726;52.766;6.606;2022-10-04T01:36:45;13.60;99.90
61807;DHT22;47726;52.766;6.606;2022-10-04T01:39:12;13.70;99.90
61807;DHT22;47726;52.766;6.606;2022-10-04T01:41:49;13.70;99.90
61807;DHT22;47726;52.766;6.606;2022-10-04T01:44:45;13.70;99.90
61807;DHT22;47726;52.766;6.606;2022-10-04T01:47:16;13.70;99.90
61807;DHT22;47726;52.766;6.606;2022-10-04T01:49:45;13.60;99.90
61807;DHT22;47726;52.766;6.606;2022-10-04T01:52:25;13.60;99.90
61807;DHT22;47726;52.766;6.606;2022-10-04T01:55:06;13.60;99.90
61807;DHT22;47726;52.766;6.606;2022-10-04T01:57:36;13.60;99.90
61807;DHT22;47726;52.766;6.606;2022-10-04T02:00:08;13.60;99.90
61807;DHT22;47726;52.766;6.606;2022-10-04T02:05:09;13.60;99.90
61807;DHT22;47726;52.766;6.606;2022-10-04T02:07:36;13.60;99.90
61807;DHT22;47726;52.766;6.606;2022-10-04T02:10:09;13.60;99.90
61807;DHT22;47726;52.766;6.606;2022-10-04T02:12:36;13.60;99.90
61807;DHT22;47726;52.766;6.606;2022-10-04T02:15:06;13.60;99.90
61807;DHT22;47726;52.766;6.606;2022-10-04T02:17:37;13.60;99.90
61807;DHT22;47726;52.766;6.606;2022-10-04T02:20:10;13.60;99.90
61807;DHT22;47726;52.766;6.606;2022-10-04T02:22:37;13.60;99.90
61807;DHT22;47726;52.766;6.606;2022-10-04T02:25:04;13.60;99.90
61807;DHT22;47726;52.766;6.606;2022-10-04T02:27:31;13.60;99.90
61807;DHT22;47726;52.766;6.606;2022-10-04T02:30:01;13.50;99.90
61807;DHT22;47726;52.766;6.606;2022-10-04T02:32:29;13.50;99.90
61807;DHT22;47726;52.766;6.606;2022-10-04T02:35:14;13.50;99.90
61807;DHT22;47726;52.766;6.606;2022-10-04T02:37:40;13.50;99.90
61807;DHT22;47726;52.766;6.606;2022-10-04T02:40:11;13.50;99.90
61807;DHT22;47726;52.766;6.606;2022-10-04T02:42:45;13.50;99.90
61807;DHT22;47726;52.766;6.606;2022-10-04T02:45:18;13.50;99.90
61807;DHT22;47726;52.766;6.606;2022-10-04T02:48:01;13.40;99.90
61807;DHT22;47726;52.766;6.606;2022-10-04T02:50:32;13.40;99.90
61807;DHT22;47726;52.766;6.606;2022-10-04T02:53:22;13.40;99.90
61807;DHT22;47726;52.766;6.606;2022-10-04T02:55:51;13.40;99.90
61807;DHT22;47726;52.766;6.606;2022-10-04T02:58:21;13.30;99.90
61807;DHT22;47726;52.766;6.606;2022-10-04T03:00:55;13.40;99.90
61807;DHT22;47726;52.766;6.606;2022-10-04T03:03:36;13.30;99.90
61807;DHT22;47726;52.766;6.606;2022-10-04T03:08:33;13.30;99.90
61807;DHT22;47726;52.766;6.606;2022-10-04T03:11:02;13.30;99.90
61807;DHT22;47726;52.766;6.606;2022-10-04T03:13:29;13.20;99.90
61807;DHT22;47726;52.766;6.606;2022-10-04T03:15:55;13.20;99.90
61807;DHT22;47726;52.766;6.606;2022-10-04T03:18:21;13.20;99.90
61807;DHT22;47726;52.766;6.606;2022-10-04T03:20:48;13.20;99.90
61807;DHT22;47726;52.766;6.606;2022-10-04T03:23:15;13.10;99.90
61807;DHT22;47726;52.766;6.606;2022-10-04T03:26:15;13.10;99.90
61807;DHT22;47726;52.766;6.606;2022-10-04T03:28:36;13.10;99.90
61807;DHT22;47726;52.766;6.606;2022-10-04T03:31:02;13.10;99.90
61807;DHT22;47726;52.766;6.606;2022-10-04T03:33:28;13.00;99.90
61807;DHT22;47726;52.766;6.606;2022-10-04T03:35:56;13.00;99.90
61807;DHT22;47726;52.766;6.606;2022-10-04T03:38:23;13.00;99.90
61807;DHT22;47726;52.766;6.606;2022-10-04T03:41:00;13.00;99.90
61807;DHT22;47726;52.766;6.606;2022-10-04T03:43:30;13.00;99.90
61807;DHT22;47726;52.766;6.606;2022-10-04T03:46:01;12.90;99.90
61807;DHT22;47726;52.766;6.606;2022-10-04T03:48:36;12.90;99.90
61807;DHT22;47726;52.766;6.606;2022-10-04T03:51:05;12.90;99.90
61807;DHT22;47726;52.766;6.606;2022-10-04T03:53:35;12.90;99.90
61807;DHT22;47726;52.766;6.606;2022-10-04T03:56:18;12.80;99.90
61807;DHT22;47726;52.766;6.606;2022-10-04T03:58:45;12.80;99.90
61807;DHT22;47726;52.766;6.606;2022-10-04T04:01:42;12.80;99.90
61807;DHT22;47726;52.766;6.606;2022-10-04T04:04:16;12.80;99.90
61807;DHT22;47726;52.766;6.606;2022-10-04T04:07:05;12.70;99.90
61807;DHT22;47726;52.766;6.606;2022-10-04T04:09:51;12.70;99.90
61807;DHT22;47726;52.766;6.606;2022-10-04T04:12:34;12.70;99.90
61807;DHT22;47726;52.766;6.606;2022-10-04T04:15:02;12.70;99.90
61807;DHT22;47726;52.766;6.606;2022-10-04T04:17:50;12.60;99.90
61807;DHT22;47726;52.766;6.606;2022-10-04T04:20:24;12.60;99.90
61807;DHT22;47726;52.766;6.606;2022-10-04T04:22:57;12.60;99.90
61807;DHT22;47726;52.766;6.606;2022-10-04T04:25:24;12.60;99.90
61807;DHT22;47726;52.766;6.606;2022-10-04T04:28:02;12.60;99.90
61807;DHT22;47726;52.766;6.606;2022-10-04T04:30:30;12.50;99.90
61807;DHT22;47726;52.766;6.606;2022-10-04T04:33:04;12.50;99.90
61807;DHT22;47726;52.766;6.606;2022-10-04T04:35:33;12.50;99.90
61807;DHT22;47726;52.766;6.606;2022-10-04T04:38:09;12.50;99.90
61807;DHT22;47726;52.766;6.606;2022-10-04T04:40:37;12.40;99.90
61807;DHT22;47726;52.766;6.606;2022-10-04T04:43:03;12.40;99.90
61807;DHT22;47726;52.766;6.606;2022-10-04T04:45:29;12.40;99.90
61807;DHT22;47726;52.766;6.606;2022-10-04T04:47:58;12.40;99.90
61807;DHT22;47726;52.766;6.606;2022-10-04T04:50:34;12.40;99.90
61807;DHT22;47726;52.766;6.606;2022-10-04T04:53:04;12.30;99.90
61807;DHT22;47726;52.766;6.606;2022-10-04T04:55:40;12.30;99.90
61807;DHT22;47726;52.766;6.606;2022-10-04T04:58:07;12.30;99.90
61807;DHT22;47726;52.766;6.606;2022-10-04T05:00:38;12.30;99.90
61807;DHT22;47726;52.766;6.606;2022-10-04T05:03:17;12.20;99.90
61807;DHT22;47726;52.766;6.606;2022-10-04T05:05:45;12.20;99.90
61807;DHT22;47726;52.766;6.606;2022-10-04T05:08:26;12.20;99.90
61807;DHT22;47726;52.766;6.606;2022-10-04T05:11:02;12.20;99.90
61807;DHT22;47726;52.766;6.606;2022-10-04T05:13:49;12.10;99.90
61807;DHT22;47726;52.766;6.606;2022-10-04T05:16:31;12.20;99.90
61807;DHT22;47726;52.766;6.606;2022-10-04T05:19:02;12.10;99.90
61807;DHT22;47726;52.766;6.606;2022-10-04T05:21:31;12.10;99.90
61807;DHT22;47726;52.766;6.606;2022-10-04T05:24:11;12.10;99.90
61807;DHT22;47726;52.766;6.606;2022-10-04T05:26:37;12.10;99.90
61807;DHT22;47726;52.766;6.606;2022-10-04T05:29:17;12.10;99.90
61807;DHT22;47726;52.766;6.606;2022-10-04T05:32:10;12.10;99.90
61807;DHT22;47726;52.766;6.606;2022-10-04T05:34:42;12.00;99.90
61807;DHT22;47726;52.766;6.606;2022-10-04T05:40:26;12.00;99.90
61807;DHT22;47726;52.766;6.606;2022-10-04T05:42:53;12.00;99.90
61807;DHT22;47726;52.766;6.606;2022-10-04T05:45:29;12.00;99.90
61807;DHT22;47726;52.766;6.606;2022-10-04T05:47:57;12.00;99.90
61807;DHT22;47726;52.766;6.606;2022-10-04T05:55:55;11.90;99.90
61807;DHT22;47726;52.766;6.606;2022-10-04T06:06:38;11.90;99.90
61807;DHT22;47726;52.766;6.606;2022-10-04T06:09:26;11.90;99.90
61807;DHT22;47726;52.766;6.606;2022-10-04T06:12:10;11.90;99.90
61807;DHT22;47726;52.766;6.606;2022-10-04T06:20:42;11.90;99.90
61807;DHT22;47726;52.766;6.606;2022-10-04T06:23:16;11.90;99.90
61807;DHT22;47726;52.766;6.606;2022-10-04T06:25:59;11.90;99.90
61807;DHT22;47726;52.766;6.606;2022-10-04T06:28:34;12.00;99.90
61807;DHT22;47726;52.766;6.606;2022-10-04T06:45:16;12.00;99.90
61807;DHT22;47726;52.766;6.606;2022-10-04T06:48:02;12.10;99.90
61807;DHT22;47726;52.766;6.606;2022-10-04T06:50:38;12.10;99.90
61807;DHT22;47726;52.766;6.606;2022-10-04T06:53:24;12.10;99.90
61807;DHT22;47726;52.766;6.606;2022-10-04T06:59:25;12.40;99.90
61807;DHT22;47726;52.766;6.606;2022-10-04T07:02:45;12.40;99.90
61807;DHT22;47726;52.766;6.606;2022-10-04T07:04:56;12.60;99.90
61807;DHT22;47726;52.766;6.606;2022-10-04T07:07:46;12.80;99.90
61807;DHT22;47726;52.766;6.606;2022-10-04T07:10:30;13.00;99.90
61807;DHT22;47726;52.766;6.606;2022-10-04T07:13:04;13.30;99.90
61807;DHT22;47726;52.766;6.606;2022-10-04T07:16:00;13.50;99.90
61807;DHT22;47726;52.766;6.606;2022-10-04T07:19:21;13.80;99.90
61807;DHT22;47726;52.766;6.606;2022-10-04T07:25:11;14.30;99.90
61807;DHT22;47726;52.766;6.606;2022-10-04T07:27:57;14.70;99.90
61807;DHT22;47726;52.766;6.606;2022-10-04T07:30:50;15.10;99.90
61807;DHT22;47726;52.766;6.606;2022-10-04T07:33:17;15.30;99.90
61807;DHT22;47726;52.766;6.606;2022-10-04T07:35:49;15.30;99.90
61807;DHT22;47726;52.766;6.606;2022-10-04T07:38:25;15.20;99.90
61807;DHT22;47726;52.766;6.606;2022-10-04T07:41:11;15.20;99.90
61807;DHT22;47726;52.766;6.606;2022-10-04T07:43:53;15.20;99.90
61807;DHT22;47726;52.766;6.606;2022-10-04T07:49:17;15.40;99.90
61807;DHT22;47726;52.766;6.606;2022-10-04T07:55:31;15.70;99.90
61807;DHT22;47726;52.766;6.606;2022-10-04T08:01:04;16.40;99.90
61807;DHT22;47726;52.766;6.606;2022-10-04T08:09:27;17.30;99.90
61807;DHT22;47726;52.766;6.606;2022-10-04T08:23:30;17.80;99.90
61807;DHT22;47726;52.766;6.606;2022-10-04T08:34:40;18.00;99.90
61807;DHT22;47726;52.766;6.606;2022-10-04T08:37:44;18.10;99.90
61807;DHT22;47726;52.766;6.606;2022-10-04T08:51:50;19.30;99.90
61807;DHT22;47726;52.766;6.606;2022-10-04T09:17:18;20.90;99.90
61807;DHT22;47726;52.766;6.606;2022-10-04T09:20:03;21.20;99.80
61807;DHT22;47726;52.766;6.606;2022-10-04T09:22:55;21.40;98.90
61807;DHT22;47726;52.766;6.606;2022-10-04T09:33:56;22.10;97.30
61807;DHT22;47726;52.766;6.606;2022-10-04T09:45:23;22.50;96.10
61807;DHT22;47726;52.766;6.606;2022-10-04T09:50:45;22.70;95.30
61807;DHT22;47726;52.766;6.606;2022-10-04T10:10:17;22.70;94.20
61807;DHT22;47726;52.766;6.606;2022-10-04T10:21:42;22.70;94.30
61807;DHT22;47726;52.766;6.606;2022-10-04T10:26:52;22.90;94.40
61807;DHT22;47726;52.766;6.606;2022-10-04T10:29:39;22.90;93.80
61807;DHT22;47726;52.766;6.606;2022-10-04T10:35:24;22.80;93.70
61807;DHT22;47726;52.766;6.606;2022-10-04T10:40:50;22.80;93.20
61807;DHT22;47726;52.766;6.606;2022-10-04T10:43:41;22.80;93.00
61807;DHT22;47726;52.766;6.606;2022-10-04T10:52:17;22.80;92.10
61807;DHT22;47726;52.766;6.606;2022-10-04T10:57:50;22.80;92.40
61807;DHT22;47726;52.766;6.606;2022-10-04T11:00:23;22.80;93.20
61807;DHT22;47726;52.766;6.606;2022-10-04T11:03:19;22.80;92.70
61807;DHT22;47726;52.766;6.606;2022-10-04T11:11:53;22.60;91.80
61807;DHT22;47726;52.766;6.606;2022-10-04T11:17:48;22.60;92.50
61807;DHT22;47726;52.766;6.606;2022-10-04T11:29:36;22.50;91.20
61807;DHT22;47726;52.766;6.606;2022-10-04T11:32:38;22.50;91.10
61807;DHT22;47726;52.766;6.606;2022-10-04T11:35:37;22.50;91.10
61807;DHT22;47726;52.766;6.606;2022-10-04T11:38:43;22.50;92.20
61807;DHT22;47726;52.766;6.606;2022-10-04T11:46:55;22.50;93.70
61807;DHT22;47726;52.766;6.606;2022-10-04T11:52:50;22.50;92.70
61807;DHT22;47726;52.766;6.606;2022-10-04T12:09:45;22.00;91.80
61807;DHT22;47726;52.766;6.606;2022-10-04T12:15:24;21.90;91.30
61807;DHT22;47726;52.766;6.606;2022-10-04T12:23:59;21.80;92.80
61807;DHT22;47726;52.766;6.606;2022-10-04T12:26:43;21.80;92.70
61807;DHT22;47726;52.766;6.606;2022-10-04T12:31:56;21.90;93.50
61807;DHT22;47726;52.766;6.606;2022-10-04T12:34:39;21.90;93.80
61807;DHT22;47726;52.766;6.606;2022-10-04T12:42:44;21.90;93.20
61807;DHT22;47726;52.766;6.606;2022-10-04T12:45:37;21.90;93.60
61807;DHT22;47726;52.766;6.606;2022-10-04T12:51:20;22.00;94.30
61807;DHT22;47726;52.766;6.606;2022-10-04T12:56:44;22.10;94.70
61807;DHT22;47726;52.766;6.606;2022-10-04T13:02:04;22.10;94.50
61807;DHT22;47726;52.766;6.606;2022-10-04T13:04:53;22.10;94.30
61807;DHT22;47726;52.766;6.606;2022-10-04T13:07:53;22.10;94.10
61807;DHT22;47726;52.766;6.606;2022-10-04T13:10:41;22.00;92.90
61807;DHT22;47726;52.766;6.606;2022-10-04T13:27:12;21.70;93.90
61807;DHT22;47726;52.766;6.606;2022-10-04T13:30:04;21.60;91.60
61807;DHT22;47726;52.766;6.606;2022-10-04T13:32:41;21.60;93.40
61807;DHT22;47726;52.766;6.606;2022-10-04T13:35:22;21.60;93.80
61807;DHT22;47726;52.766;6.606;2022-10-04T13:40:43;21.50;93.10
61807;DHT22;47726;52.766;6.606;2022-10-04T13:43:23;21.40;93.70
61807;DHT22;47726;52.766;6.606;2022-10-04T13:46:21;21.40;93.50
61807;DHT22;47726;52.766;6.606;2022-10-04T13:51:58;21.40;93.50
61807;DHT22;47726;52.766;6.606;2022-10-04T13:58:10;21.40;93.20
61807;DHT22;47726;52.766;6.606;2022-10-04T14:00:47;21.30;92.70
61807;DHT22;47726;52.766;6.606;2022-10-04T14:08:58;21.20;93.50
61807;DHT22;47726;52.766;6.606;2022-10-04T14:14:44;21.20;93.60
61807;DHT22;47726;52.766;6.606;2022-10-04T14:17:31;21.20;93.70
61807;DHT22;47726;52.766;6.606;2022-10-04T14:20:31;21.10;93.00
61807;DHT22;47726;52.766;6.606;2022-10-04T14:24:09;21.00;92.60
61807;DHT22;47726;52.766;6.606;2022-10-04T14:26:40;20.90;93.30
61807;DHT22;47726;52.766;6.606;2022-10-04T14:31:59;20.80;93.50
61807;DHT22;47726;52.766;6.606;2022-10-04T14:34:44;20.80;92.80
61807;DHT22;47726;52.766;6.606;2022-10-04T14:37:46;20.70;93.30
61807;DHT22;47726;52.766;6.606;2022-10-04T14:40:41;20.70;93.50
61807;DHT22;47726;52.766;6.606;2022-10-04T14:43:22;20.70;93.20
61807;DHT22;47726;52.766;6.606;2022-10-04T14:46:15;20.60;93.50
61807;DHT22;47726;52.766;6.606;2022-10-04T14:48:58;20.70;93.60
61807;DHT22;47726;52.766;6.606;2022-10-04T14:54:44;20.60;93.80
61807;DHT22;47726;52.766;6.606;2022-10-04T15:00:18;20.60;93.90
61807;DHT22;47726;52.766;6.606;2022-10-04T15:05:30;20.50;93.80
61807;DHT22;47726;52.766;6.606;2022-10-04T15:10:56;20.40;94.10
61807;DHT22;47726;52.766;6.606;2022-10-04T15:19:01;20.20;94.20
61807;DHT22;47726;52.766;6.606;2022-10-04T15:21:34;20.20;94.20
61807;DHT22;47726;52.766;6.606;2022-10-04T15:24:20;20.10;94.50
61807;DHT22;47726;52.766;6.606;2022-10-04T15:27:20;20.10;94.40
61807;DHT22;47726;52.766;6.606;2022-10-04T15:36:02;19.90;94.50
61807;DHT22;47726;52.766;6.606;2022-10-04T15:42:08;19.80;94.60
61807;DHT22;47726;52.766;6.606;2022-10-04T15:47:34;19.60;94.70
61807;DHT22;47726;52.766;6.606;2022-10-04T15:53:12;19.50;94.80
61807;DHT22;47726;52.766;6.606;2022-10-04T16:03:30;19.40;95.00
61807;DHT22;47726;52.766;6.606;2022-10-04T16:06:27;19.30;95.00
61807;DHT22;47726;52.766;6.606;2022-10-04T16:11:49;19.30;95.10
61807;DHT22;47726;52.766;6.606;2022-10-04T16:18:10;19.10;95.00
61807;DHT22;47726;52.766;6.606;2022-10-04T16:23:22;19.00;95.20
61807;DHT22;47726;52.766;6.606;2022-10-04T16:25:52;19.00;95.30
61807;DHT22;47726;52.766;6.606;2022-10-04T16:34:33;18.80;95.50
61807;DHT22;47726;52.766;6.606;2022-10-04T16:48:01;18.50;96.10
61807;DHT22;47726;52.766;6.606;2022-10-04T16:56:13;18.30;96.40
61807;DHT22;47726;52.766;6.606;2022-10-04T17:04:02;18.10;96.90
61807;DHT22;47726;52.766;6.606;2022-10-04T17:06:56;18.10;97.00
61807;DHT22;47726;52.766;6.606;2022-10-04T17:12:16;18.00;97.30
61807;DHT22;47726;52.766;6.606;2022-10-04T17:26:24;17.70;98.00
61807;DHT22;47726;52.766;6.606;2022-10-04T17:32:08;17.60;98.20
61807;DHT22;47726;52.766;6.606;2022-10-04T17:48:44;17.30;98.70
61807;DHT22;47726;52.766;6.606;2022-10-04T17:51:48;17.20;98.80
61807;DHT22;47726;52.766;6.606;2022-10-04T17:57:28;17.10;99.00
61807;DHT22;47726;52.766;6.606;2022-10-04T18:05:24;17.00;99.20
61807;DHT22;47726;52.766;6.606;2022-10-04T18:10:57;17.00;99.40
61807;DHT22;47726;52.766;6.606;2022-10-04T18:13:31;17.00;99.60
61807;DHT22;47726;52.766;6.606;2022-10-04T18:16:17;16.90;99.60
61807;DHT22;47726;52.766;6.606;2022-10-04T18:18:47;16.90;99.60
61807;DHT22;47726;52.766;6.606;2022-10-04T18:21:29;16.90;99.70
61807;DHT22;47726;52.766;6.606;2022-10-04T18:24:20;16.90;99.90
61807;DHT22;47726;52.766;6.606;2022-10-04T18:32:30;16.80;99.90
61807;DHT22;47726;52.766;6.606;2022-10-04T18:35:00;16.80;99.90
61807;DHT22;47726;52.766;6.606;2022-10-04T18:37:35;16.80;99.90
61807;DHT22;47726;52.766;6.606;2022-10-04T18:40:16;16.70;99.90
61807;DHT22;47726;52.766;6.606;2022-10-04T18:42:50;16.70;99.90
61807;DHT22;47726;52.766;6.606;2022-10-04T18:45:26;16.70;99.90
61807;DHT22;47726;52.766;6.606;2022-10-04T18:47:53;16.70;99.90
61807;DHT22;47726;52.766;6.606;2022-10-04T18:55:37;16.70;99.90
61807;DHT22;47726;52.766;6.606;2022-10-04T19:01:42;16.60;99.90
61807;DHT22;47726;52.766;6.606;2022-10-04T19:04:50;16.60;99.90
61807;DHT22;47726;52.766;6.606;2022-10-04T19:10:20;16.60;99.90
61807;DHT22;47726;52.766;6.606;2022-10-04T19:21:11;16.50;99.90
61807;DHT22;47726;52.766;6.606;2022-10-04T19:24:13;16.50;99.90
61807;DHT22;47726;52.766;6.606;2022-10-04T19:26:51;16.40;99.90
61807;DHT22;47726;52.766;6.606;2022-10-04T19:29:42;16.50;99.90
61807;DHT22;47726;52.766;6.606;2022-10-04T19:35:00;16.40;99.90
61807;DHT22;47726;52.766;6.606;2022-10-04T19:37:38;16.40;99.90
61807;DHT22;47726;52.766;6.606;2022-10-04T19:43:03;16.40;99.90
61807;DHT22;47726;52.766;6.606;2022-10-04T19:46:00;16.40;99.90
61807;DHT22;47726;52.766;6.606;2022-10-04T19:48:32;16.40;99.90
61807;DHT22;47726;52.766;6.606;2022-10-04T19:51:05;16.40;99.90
61807;DHT22;47726;52.766;6.606;2022-10-04T19:53:41;16.40;99.90
61807;DHT22;47726;52.766;6.606;2022-10-04T19:56:16;16.40;99.90
61807;DHT22;47726;52.766;6.606;2022-10-04T19:58:46;16.40;99.90
61807;DHT22;47726;52.766;6.606;2022-10-04T20:01:16;16.30;99.90
61807;DHT22;47726;52.766;6.606;2022-10-04T20:03:42;16.30;99.90
61807;DHT22;47726;52.766;6.606;2022-10-04T20:06:09;16.30;99.90
61807;DHT22;47726;52.766;6.606;2022-10-04T20:13:40;16.30;99.90
61807;DHT22;47726;52.766;6.606;2022-10-04T20:16:06;16.30;99.90
61807;DHT22;47726;52.766;6.606;2022-10-04T20:26:07;16.30;99.90
61807;DHT22;47726;52.766;6.606;2022-10-04T20:31:04;16.30;99.90
61807;DHT22;47726;52.766;6.606;2022-10-04T20:36:06;16.20;99.90
61807;DHT22;47726;52.766;6.606;2022-10-04T20:50:19;16.20;99.90
61807;DHT22;47726;52.766;6.606;2022-10-04T20:52:54;16.20;99.90
61807;DHT22;47726;52.766;6.606;2022-10-04T20:58:00;16.20;99.90
61807;DHT22;47726;52.766;6.606;2022-10-04T21:00:29;16.10;99.90
61807;DHT22;47726;52.766;6.606;2022-10-04T21:03:27;16.10;99.90
61807;DHT22;47726;52.766;6.606;2022-10-04T21:06:08;16.10;99.90
61807;DHT22;47726;52.766;6.606;2022-10-04T21:08:35;16.10;99.90
61807;DHT22;47726;52.766;6.606;2022-10-04T21:13:42;16.10;99.90
61807;DHT22;47726;52.766;6.606;2022-10-04T21:16:08;16.10;99.90
61807;DHT22;47726;52.766;6.606;2022-10-04T21:18:34;16.20;99.90
61807;DHT22;47726;52.766;6.606;2022-10-04T21:20:59;16.10;99.90
61807;DHT22;47726;52.766;6.606;2022-10-04T21:23:33;16.20;99.90
61807;DHT22;47726;52.766;6.606;2022-10-04T21:26:18;16.20;99.90
61807;DHT22;47726;52.766;6.606;2022-10-04T21:28:45;16.20;99.90
61807;DHT22;47726;52.766;6.606;2022-10-04T21:31:11;16.20;99.90
61807;DHT22;47726;52.766;6.606;2022-10-04T21:33:37;16.10;99.90
61807;DHT22;47726;52.766;6.606;2022-10-04T21:36:03;16.10;99.90
61807;DHT22;47726;52.766;6.606;2022-10-04T21:38:30;16.20;99.90
61807;DHT22;47726;52.766;6.606;2022-10-04T21:40:55;16.20;99.90
61807;DHT22;47726;52.766;6.606;2022-10-04T21:43:22;16.10;99.90
61807;DHT22;47726;52.766;6.606;2022-10-04T21:45:48;16.20;99.90
61807;DHT22;47726;52.766;6.606;2022-10-04T21:48:14;16.20;99.90
61807;DHT22;47726;52.766;6.606;2022-10-04T21:50:40;16.10;99.90
61807;DHT22;47726;52.766;6.606;2022-10-04T21:53:05;16.20;99.90
61807;DHT22;47726;52.766;6.606;2022-10-04T21:55:31;16.20;99.90
61807;DHT22;47726;52.766;6.606;2022-10-04T21:57:57;16.10;99.90
61807;DHT22;47726;52.766;6.606;2022-10-04T22:00:22;16.10;99.90
61807;DHT22;47726;52.766;6.606;2022-10-04T22:02:48;16.10;99.90
61807;DHT22;47726;52.766;6.606;2022-10-04T22:05:14;16.10;99.90
61807;DHT22;47726;52.766;6.606;2022-10-04T22:07:40;16.10;99.90
61807;DHT22;47726;52.766;6.606;2022-10-04T22:10:06;16.10;99.90
61807;DHT22;47726;52.766;6.606;2022-10-04T22:12:34;16.10;99.90
61807;DHT22;47726;52.766;6.606;2022-10-04T22:15:00;16.10;99.90
61807;DHT22;47726;52.766;6.606;2022-10-04T22:17:25;16.10;99.90
61807;DHT22;47726;52.766;6.606;2022-10-04T22:19:51;16.10;99.90
61807;DHT22;47726;52.766;6.606;2022-10-04T22:22:17;16.10;99.90
61807;DHT22;47726;52.766;6.606;2022-10-04T22:24:43;16.10;99.90
61807;DHT22;47726;52.766;6.606;2022-10-04T22:27:16;16.10;99.90
61807;DHT22;47726;52.766;6.606;2022-10-04T22:29:42;16.10;99.90
61807;DHT22;47726;52.766;6.606;2022-10-04T22:32:20;16.10;99.90
61807;DHT22;47726;52.766;6.606;2022-10-04T22:34:48;16.10;99.90
61807;DHT22;47726;52.766;6.606;2022-10-04T22:37:13;16.10;99.90
61807;DHT22;47726;52.766;6.606;2022-10-04T22:39:39;16.10;99.90
61807;DHT22;47726;52.766;6.606;2022-10-04T22:42:05;16.10;99.90
61807;DHT22;47726;52.766;6.606;2022-10-04T22:44:36;16.10;99.90
61807;DHT22;47726;52.766;6.606;2022-10-04T22:47:04;16.10;99.90
61807;DHT22;47726;52.766;6.606;2022-10-04T22:49:33;16.00;99.90
61807;DHT22;47726;52.766;6.606;2022-10-04T22:52:01;16.00;99.90
61807;DHT22;47726;52.766;6.606;2022-10-04T22:54:31;16.10;99.90
61807;DHT22;47726;52.766;6.606;2022-10-04T22:56:57;16.00;99.90
61807;DHT22;47726;52.766;6.606;2022-10-04T22:59:33;16.00;99.90
61807;DHT22;47726;52.766;6.606;2022-10-04T23:02:04;16.10;99.90
61807;DHT22;47726;52.766;6.606;2022-10-04T23:04:30;16.00;99.90
61807;DHT22;47726;52.766;6.606;2022-10-04T23:06:56;16.00;99.90
61807;DHT22;47726;52.766;6.606;2022-10-04T23:09:21;16.00;99.90
61807;DHT22;47726;52.766;6.606;2022-10-04T23:11:47;16.00;99.90
61807;DHT22;47726;52.766;6.606;2022-10-04T23:14:13;16.00;99.90
61807;DHT22;47726;52.766;6.606;2022-10-04T23:16:38;16.00;99.90
61807;DHT22;47726;52.766;6.606;2022-10-04T23:19:17;16.00;99.90
61807;DHT22;47726;52.766;6.606;2022-10-04T23:21:46;16.00;99.90
61807;DHT22;47726;52.766;6.606;2022-10-04T23:24:13;16.00;99.90
61807;DHT22;47726;52.766;6.606;2022-10-04T23:26:40;16.00;99.90
61807;DHT22;47726;52.766;6.606;2022-10-04T23:31:50;16.00;99.90
61807;DHT22;47726;52.766;6.606;2022-10-04T23:34:36;16.00;99.90
61807;DHT22;47726;52.766;6.606;2022-10-04T23:37:02;16.00;99.90
61807;DHT22;47726;52.766;6.606;2022-10-04T23:39:36;16.00;99.90
61807;DHT22;47726;52.766;6.606;2022-10-04T23:42:17;16.00;99.90
61807;DHT22;47726;52.766;6.606;2022-10-04T23:44:45;16.00;99.90
61807;DHT22;47726;52.766;6.606;2022-10-04T23:47:15;16.00;99.90
61807;DHT22;47726;52.766;6.606;2022-10-04T23:49:40;16.00;99.90
61807;DHT22;47726;52.766;6.606;2022-10-04T23:52:18;16.00;99.90
61807;DHT22;47726;52.766;6.606;2022-10-04T23:54:43;16.00;99.90
61807;DHT22;47726;52.766;6.606;2022-10-04T23:57:09;16.00;99.90
61807;DHT22;47726;52.766;6.606;2022-10-04T23:59:38;16.00;99.90
